Time;durP1;ratioP1;P1;durP2;ratioP2;P2;SDS_P1;SDS_P2;PMS_P1;PMS_P2;Temp;Humidity;BMP_temperature;BMP_pressure;BME280_temperature;BME280_humidity;BME280_pressure;Samples;Min_cycle;Max_cycle;Signal;HPM_P1;HPM_P2
2022/09/23 00:01:47;;;;;;;;;;;20.60;43.10;;;;;;5083847;28;19964;-64
2022/09/23 00:04:14;;;;;;;;;;;20.60;43.00;;;;;;5067220;28;19928;-63
2022/09/23 00:06:42;;;;;;;;;;;20.50;42.90;;;;;;5084956;28;20027;-63
2022/09/23 00:09:08;;;;;;;;;;;20.50;42.90;;;;;;5085254;28;20277;-63
2022/09/23 00:11:35;;;;;;;;;;;20.60;43.00;;;;;;5083563;28;19925;-64
2022/09/23 00:14:03;;;;;;;;;;;20.50;42.90;;;;;;5099851;27;19920;-63
2022/09/23 00:16:32;;;;;;;;;;;20.50;42.90;;;;;;5084538;28;19920;-63
2022/09/23 00:18:59;;;;;;;;;;;20.50;42.90;;;;;;5082766;28;19936;-65
2022/09/23 00:21:26;;;;;;;;;;;20.50;42.90;;;;;;5067693;28;19927;-63
2022/09/23 00:23:55;;;;;;;;;;;20.50;42.80;;;;;;5084843;28;19928;-64
2022/09/23 00:26:22;;;;;;;;;;;20.50;42.80;;;;;;5068937;28;19928;-63
2022/09/23 00:28:49;;;;;;;;;;;20.50;42.80;;;;;;5100860;28;19932;-65
2022/09/23 00:31:18;;;;;;;;;;;20.50;42.80;;;;;;5082954;28;19998;-63
2022/09/23 00:33:46;;;;;;;;;;;20.40;42.70;;;;;;5101367;28;19927;-63
2022/09/23 00:36:15;;;;;;;;;;;20.40;42.60;;;;;;5082002;28;19921;-63
2022/09/23 00:38:41;;;;;;;;;;;20.50;42.70;;;;;;5084308;28;19925;-63
2022/09/23 00:41:14;;;;;;;;;;;20.40;42.50;;;;;;5067335;28;20334;-64
2022/09/23 00:43:42;;;;;;;;;;;20.40;42.50;;;;;;5081480;28;20358;-65
2022/09/23 00:46:09;;;;;;;;;;;20.40;42.50;;;;;;5101319;28;20030;-65
2022/09/23 00:48:37;;;;;;;;;;;20.40;42.50;;;;;;5081180;28;19927;-64
2022/09/23 00:51:07;;;;;;;;;;;20.40;42.50;;;;;;5066244;28;20018;-66
2022/09/23 00:53:34;;;;;;;;;;;20.40;42.50;;;;;;5083180;28;20384;-65
2022/09/23 00:56:02;;;;;;;;;;;20.40;42.50;;;;;;5081459;28;19924;-63
2022/09/23 00:58:30;;;;;;;;;;;20.40;42.40;;;;;;5067817;28;20245;-64
2022/09/23 01:00:58;;;;;;;;;;;20.40;42.50;;;;;;5064651;28;19927;-63
2022/09/23 01:03:25;;;;;;;;;;;20.40;42.40;;;;;;5067226;28;20376;-63
2022/09/23 01:05:53;;;;;;;;;;;20.30;42.30;;;;;;5100802;28;19924;-64
2022/09/23 01:08:20;;;;;;;;;;;20.30;42.30;;;;;;5067120;28;20000;-65
2022/09/23 01:10:48;;;;;;;;;;;20.30;42.20;;;;;;5065058;28;19924;-63
2022/09/23 01:13:16;;;;;;;;;;;20.30;42.30;;;;;;5098240;28;19924;-63
2022/09/23 01:15:44;;;;;;;;;;;20.30;42.30;;;;;;5082122;28;19920;-63
2022/09/23 01:18:15;;;;;;;;;;;20.30;42.20;;;;;;5067001;28;20007;-65
2022/09/23 01:21:01;;;;;;;;;;;20.30;42.20;;;;;;5083405;28;19920;-63
2022/09/23 01:23:58;;;;;;;;;;;20.30;42.20;;;;;;5064632;28;19920;-63
2022/09/23 01:26:31;;;;;;;;;;;20.30;42.20;;;;;;5081867;28;19939;-64
2022/09/23 01:29:02;;;;;;;;;;;20.30;42.20;;;;;;5098210;28;20037;-63
2022/09/23 01:31:32;;;;;;;;;;;20.30;42.10;;;;;;5083300;28;19930;-64
2022/09/23 01:34:01;;;;;;;;;;;20.30;42.20;;;;;;5098188;28;20015;-64
2022/09/23 01:36:28;;;;;;;;;;;20.30;42.10;;;;;;5077414;28;19925;-63
2022/09/23 01:38:57;;;;;;;;;;;20.30;42.10;;;;;;5100261;28;19963;-63
2022/09/23 01:41:41;;;;;;;;;;;20.30;42.10;;;;;;5081945;28;19936;-64
2022/09/23 01:44:08;;;;;;;;;;;20.30;42.10;;;;;;5082552;28;19926;-64
2022/09/23 01:46:38;;;;;;;;;;;20.30;42.10;;;;;;5066960;28;19928;-64
2022/09/23 01:49:06;;;;;;;;;;;20.30;42.00;;;;;;5083182;28;20008;-64
2022/09/23 01:51:34;;;;;;;;;;;20.30;42.00;;;;;;5080891;28;19924;-63
2022/09/23 01:54:03;;;;;;;;;;;20.30;42.00;;;;;;5066256;28;19920;-63
2022/09/23 01:56:30;;;;;;;;;;;20.30;42.00;;;;;;5067980;28;19924;-63
2022/09/23 01:59:00;;;;;;;;;;;20.30;41.90;;;;;;5096906;28;19927;-65
2022/09/23 02:01:41;;;;;;;;;;;20.30;41.90;;;;;;5065885;28;19931;-63
2022/09/23 02:04:08;;;;;;;;;;;20.30;41.90;;;;;;5062675;28;19970;-66
2022/09/23 02:06:36;;;;;;;;;;;20.30;41.90;;;;;;5085679;28;19920;-63
2022/09/23 02:09:04;;;;;;;;;;;20.20;41.80;;;;;;5087156;28;19921;-63
2022/09/23 02:11:35;;;;;;;;;;;20.20;41.80;;;;;;5071274;28;19932;-64
2022/09/23 02:14:02;;;;;;;;;;;20.20;41.90;;;;;;5070804;28;19925;-63
2022/09/23 02:16:30;;;;;;;;;;;20.20;41.80;;;;;;5086916;28;19925;-65
2022/09/23 02:18:59;;;;;;;;;;;20.20;41.80;;;;;;5084513;28;20027;-65
2022/09/23 02:21:26;;;;;;;;;;;20.20;41.80;;;;;;5071225;28;19925;-66
2022/09/23 02:23:55;;;;;;;;;;;20.20;41.80;;;;;;5103764;28;19967;-63
2022/09/23 02:26:22;;;;;;;;;;;20.20;41.70;;;;;;5101521;27;19924;-64
2022/09/23 02:28:51;;;;;;;;;;;20.20;41.80;;;;;;5087077;28;19924;-63
2022/09/23 02:31:21;;;;;;;;;;;20.20;41.80;;;;;;5068671;28;20020;-63
2022/09/23 02:33:50;;;;;;;;;;;20.20;41.70;;;;;;5086670;28;19948;-64
2022/09/23 02:36:19;;;;;;;;;;;20.20;41.70;;;;;;5084119;28;19920;-63
2022/09/23 02:38:48;;;;;;;;;;;20.20;41.70;;;;;;5069424;28;19952;-63
2022/09/23 02:41:16;;;;;;;;;;;20.20;41.70;;;;;;5086778;28;20350;-64
2022/09/23 02:43:44;;;;;;;;;;;20.20;41.70;;;;;;5069861;28;19920;-63
2022/09/23 02:46:11;;;;;;;;;;;20.20;41.70;;;;;;5103738;28;19952;-64
2022/09/23 02:48:39;;;;;;;;;;;20.20;41.70;;;;;;5068410;28;19920;-64
2022/09/23 02:51:06;;;;;;;;;;;20.20;41.70;;;;;;5085389;28;19942;-64
2022/09/23 02:53:34;;;;;;;;;;;20.20;41.70;;;;;;5102966;28;20309;-63
2022/09/23 02:56:01;;;;;;;;;;;20.20;41.70;;;;;;5103517;28;20010;-63
2022/09/23 02:58:27;;;;;;;;;;;20.10;41.60;;;;;;5086134;28;20030;-63
2022/09/23 03:00:56;;;;;;;;;;;20.20;41.70;;;;;;5067104;28;19920;-63
2022/09/23 03:03:27;;;;;;;;;;;20.20;41.70;;;;;;5068609;28;19954;-63
2022/09/23 03:05:55;;;;;;;;;;;20.20;41.60;;;;;;5103626;28;19956;-63
2022/09/23 03:08:30;;;;;;;;;;;20.20;41.60;;;;;;5086181;28;19959;-63
2022/09/23 03:11:00;;;;;;;;;;;20.20;41.60;;;;;;5066809;28;19947;-63
2022/09/23 03:13:29;;;;;;;;;;;20.20;41.70;;;;;;5103226;28;19970;-63
2022/09/23 03:16:00;;;;;;;;;;;20.20;41.70;;;;;;5069192;28;20024;-63
2022/09/23 03:18:30;;;;;;;;;;;20.10;41.60;;;;;;5082683;28;20061;-63
2022/09/23 03:20:57;;;;;;;;;;;20.10;41.60;;;;;;5100100;28;19925;-63
2022/09/23 03:23:26;;;;;;;;;;;20.20;41.60;;;;;;5067887;28;19972;-63
2022/09/23 03:25:53;;;;;;;;;;;20.20;41.60;;;;;;5102600;28;20040;-64
2022/09/23 03:28:21;;;;;;;;;;;20.20;41.60;;;;;;5070328;28;19960;-63
2022/09/23 03:30:49;;;;;;;;;;;20.20;41.70;;;;;;5067555;28;20285;-64
2022/09/23 03:33:16;;;;;;;;;;;20.20;41.60;;;;;;5084812;28;19924;-65
2022/09/23 03:38:25;;;;;;;;;;;20.10;41.50;;;;;;5064880;28;19974;-62
2022/09/23 03:40:53;;;;;;;;;;;20.20;41.60;;;;;;5085384;28;20040;-65
2022/09/23 03:43:21;;;;;;;;;;;20.20;41.60;;;;;;5085506;28;20019;-63
2022/09/23 03:45:47;;;;;;;;;;;20.10;41.50;;;;;;5102359;28;19974;-63
2022/09/23 03:48:14;;;;;;;;;;;20.10;42.00;;;;;;5098981;28;19966;-63
2022/09/23 03:50:41;;;;;;;;;;;20.10;41.50;;;;;;5099970;27;19920;-63
2022/09/23 03:53:08;;;;;;;;;;;20.10;41.50;;;;;;5084742;28;20258;-62
2022/09/23 03:55:38;;;;;;;;;;;20.10;41.50;;;;;;5066445;28;19925;-64
2022/09/23 03:58:05;;;;;;;;;;;20.10;41.50;;;;;;5102160;28;19927;-63
2022/09/23 04:00:34;;;;;;;;;;;20.10;42.10;;;;;;5084266;28;19920;-64
2022/09/23 04:03:01;;;;;;;;;;;20.10;41.50;;;;;;5101584;28;20262;-64
2022/09/23 04:05:28;;;;;;;;;;;20.10;41.50;;;;;;5084477;28;20410;-64
2022/09/23 04:07:55;;;;;;;;;;;20.10;41.50;;;;;;5069146;28;19929;-63
2022/09/23 04:10:22;;;;;;;;;;;20.10;41.40;;;;;;5082429;28;19935;-63
2022/09/23 04:12:48;;;;;;;;;;;20.10;41.40;;;;;;5084372;28;19968;-62
2022/09/23 04:15:15;;;;;;;;;;;20.10;41.40;;;;;;5083162;28;19920;-65
2022/09/23 04:17:43;;;;;;;;;;;20.10;41.40;;;;;;5084159;28;19921;-64
2022/09/23 04:20:10;;;;;;;;;;;20.10;41.40;;;;;;5101051;28;19959;-64
2022/09/23 04:22:37;;;;;;;;;;;20.10;41.40;;;;;;5084471;28;19959;-64
2022/09/23 04:25:04;;;;;;;;;;;20.10;41.40;;;;;;5082388;28;20015;-64
2022/09/23 04:27:30;;;;;;;;;;;20.10;41.40;;;;;;5083302;28;19968;-64
2022/09/23 04:29:57;;;;;;;;;;;20.00;41.40;;;;;;5101312;28;20171;-64
2022/09/23 04:32:24;;;;;;;;;;;20.10;41.50;;;;;;5067344;28;20364;-63
2022/09/23 04:34:52;;;;;;;;;;;20.00;41.30;;;;;;5066208;28;19932;-64
2022/09/23 04:37:19;;;;;;;;;;;20.00;41.40;;;;;;5064977;28;19925;-64
2022/09/23 04:39:45;;;;;;;;;;;20.00;41.40;;;;;;5081517;28;19960;-65
2022/09/23 04:42:12;;;;;;;;;;;20.00;41.40;;;;;;5066831;28;19936;-66
2022/09/23 04:44:39;;;;;;;;;;;20.00;41.40;;;;;;5067915;28;19955;-65
2022/09/23 04:47:06;;;;;;;;;;;20.00;41.40;;;;;;5084285;28;20278;-65
2022/09/23 04:49:33;;;;;;;;;;;20.00;41.40;;;;;;5084261;28;20118;-64
2022/09/23 04:52:04;;;;;;;;;;;20.00;41.40;;;;;;5080046;28;19929;-66
2022/09/23 04:54:31;;;;;;;;;;;20.00;41.50;;;;;;5054839;28;19955;-65
2022/09/23 04:56:58;;;;;;;;;;;20.00;41.50;;;;;;5100581;28;19920;-65
2022/09/23 04:59:27;;;;;;;;;;;20.00;41.60;;;;;;5081381;28;23105;-66
2022/09/23 05:01:54;;;;;;;;;;;20.00;41.50;;;;;;5065583;28;19932;-66
2022/09/23 05:04:21;;;;;;;;;;;20.10;41.60;;;;;;5051807;28;19925;-66
2022/09/23 05:06:48;;;;;;;;;;;20.00;41.50;;;;;;5068827;28;19921;-68
2022/09/23 05:09:16;;;;;;;;;;;20.00;41.50;;;;;;5093782;28;19920;-65
2022/09/23 05:11:44;;;;;;;;;;;20.10;41.60;;;;;;5101467;28;20031;-65
2022/09/23 05:14:10;;;;;;;;;;;20.00;41.50;;;;;;5096330;28;19921;-65
2022/09/23 05:16:37;;;;;;;;;;;20.00;41.60;;;;;;5067541;28;19964;-66
2022/09/23 05:19:04;;;;;;;;;;;20.00;41.60;;;;;;5066641;28;19921;-66
2022/09/23 05:21:31;;;;;;;;;;;20.00;41.60;;;;;;5082642;28;19925;-65
2022/09/23 05:23:59;;;;;;;;;;;20.00;41.60;;;;;;5098939;28;20022;-68
2022/09/23 05:26:27;;;;;;;;;;;20.00;41.60;;;;;;5083997;28;19921;-67
2022/09/23 05:28:54;;;;;;;;;;;20.00;41.60;;;;;;5101134;28;19920;-65
2022/09/23 05:31:21;;;;;;;;;;;20.00;41.60;;;;;;5083024;28;19925;-66
2022/09/23 05:33:50;;;;;;;;;;;20.00;41.70;;;;;;5066028;28;20017;-65
2022/09/23 05:36:17;;;;;;;;;;;20.00;41.70;;;;;;5067529;28;20387;-65
2022/09/23 05:38:44;;;;;;;;;;;20.00;41.70;;;;;;5098280;28;19932;-66
2022/09/23 05:41:11;;;;;;;;;;;19.90;41.70;;;;;;5104189;28;19935;-65
2022/09/23 05:43:39;;;;;;;;;;;20.00;41.90;;;;;;5072654;28;19989;-67
2022/09/23 05:46:06;;;;;;;;;;;20.00;41.90;;;;;;5086458;28;19951;-66
2022/09/23 05:48:34;;;;;;;;;;;20.00;41.90;;;;;;5070638;28;19928;-65
2022/09/23 05:51:00;;;;;;;;;;;20.00;41.90;;;;;;5103918;28;19964;-65
2022/09/23 05:53:28;;;;;;;;;;;20.00;41.90;;;;;;5087626;28;19920;-65
2022/09/23 05:55:55;;;;;;;;;;;20.00;41.90;;;;;;5087958;28;19920;-66
2022/09/23 05:58:22;;;;;;;;;;;20.00;41.90;;;;;;5083780;28;19931;-65
2022/09/23 06:00:50;;;;;;;;;;;20.00;41.90;;;;;;5104239;28;19924;-65
2022/09/23 06:03:17;;;;;;;;;;;20.00;41.90;;;;;;5072459;28;19924;-65
2022/09/23 06:05:44;;;;;;;;;;;20.00;41.90;;;;;;5102184;28;19941;-64
2022/09/23 06:08:11;;;;;;;;;;;20.00;41.90;;;;;;5104531;28;20014;-66
2022/09/23 06:10:38;;;;;;;;;;;19.90;41.90;;;;;;5071583;28;19964;-65
2022/09/23 06:13:04;;;;;;;;;;;19.90;41.80;;;;;;5086817;28;19986;-67
2022/09/23 06:15:31;;;;;;;;;;;20.00;41.90;;;;;;5068757;28;19924;-65
2022/09/23 06:18:00;;;;;;;;;;;20.00;41.90;;;;;;5104028;28;19924;-65
2022/09/23 06:20:26;;;;;;;;;;;19.90;41.90;;;;;;5087025;28;19974;-65
2022/09/23 06:22:53;;;;;;;;;;;20.00;41.90;;;;;;5085946;28;19981;-65
2022/09/23 06:25:21;;;;;;;;;;;20.00;41.90;;;;;;5084269;28;20380;-66
2022/09/23 06:27:53;;;;;;;;;;;19.90;41.90;;;;;;5086824;28;19921;-65
2022/09/23 06:30:19;;;;;;;;;;;20.00;41.90;;;;;;5105440;28;20003;-65
2022/09/23 06:32:48;;;;;;;;;;;20.00;41.90;;;;;;5084486;28;19981;-65
2022/09/23 06:35:16;;;;;;;;;;;20.00;41.90;;;;;;5103258;28;20011;-65
2022/09/23 06:37:43;;;;;;;;;;;20.00;41.90;;;;;;5069939;28;20535;-65
2022/09/23 06:40:10;;;;;;;;;;;19.90;41.80;;;;;;5087032;28;19921;-65
2022/09/23 06:42:37;;;;;;;;;;;20.00;41.90;;;;;;5101938;28;20011;-65
2022/09/23 06:45:04;;;;;;;;;;;20.00;42.00;;;;;;5070503;28;19978;-65
2022/09/23 06:47:31;;;;;;;;;;;20.00;41.90;;;;;;5085567;28;20390;-65
2022/09/23 06:49:57;;;;;;;;;;;19.90;41.90;;;;;;5084573;28;19933;-65
2022/09/23 06:52:25;;;;;;;;;;;20.00;42.00;;;;;;5082574;28;19924;-67
2022/09/23 06:54:52;;;;;;;;;;;20.00;42.00;;;;;;5084404;28;19931;-64
2022/09/23 06:57:19;;;;;;;;;;;20.00;42.00;;;;;;5086373;28;20009;-65
2022/09/23 06:59:46;;;;;;;;;;;20.00;42.00;;;;;;5068293;28;19960;-66
2022/09/23 07:02:13;;;;;;;;;;;20.00;41.90;;;;;;5069816;28;19924;-65
2022/09/23 07:04:39;;;;;;;;;;;20.00;42.00;;;;;;5100954;27;19992;-65
2022/09/23 07:07:06;;;;;;;;;;;20.00;42.00;;;;;;5100561;28;19928;-67
2022/09/23 07:09:35;;;;;;;;;;;20.00;42.00;;;;;;5068430;28;20362;-65
2022/09/23 07:12:02;;;;;;;;;;;20.00;42.00;;;;;;5101109;27;19920;-65
2022/09/23 07:14:29;;;;;;;;;;;20.00;42.00;;;;;;5073982;28;19921;-66
2022/09/23 07:16:56;;;;;;;;;;;20.00;42.00;;;;;;5079837;28;19927;-66
2022/09/23 07:19:23;;;;;;;;;;;20.00;42.10;;;;;;5069405;28;19972;-65
2022/09/23 07:21:50;;;;;;;;;;;20.00;42.10;;;;;;5070580;28;19924;-66
2022/09/23 07:24:16;;;;;;;;;;;20.00;42.10;;;;;;5086371;28;19958;-66
2022/09/23 07:26:44;;;;;;;;;;;20.00;42.10;;;;;;5067712;28;19924;-65
2022/09/23 07:29:12;;;;;;;;;;;20.00;42.10;;;;;;5051932;28;19920;-66
2022/09/23 07:31:39;;;;;;;;;;;20.00;42.10;;;;;;5082247;28;20358;-66
2022/09/23 07:34:05;;;;;;;;;;;20.00;42.10;;;;;;5082709;28;19924;-65
2022/09/23 07:36:32;;;;;;;;;;;20.00;42.00;;;;;;5069780;28;19931;-65
2022/09/23 07:39:02;;;;;;;;;;;20.00;42.00;;;;;;5102844;28;20305;-65
2022/09/23 07:41:29;;;;;;;;;;;20.00;41.90;;;;;;5103901;28;19920;-65
2022/09/23 07:43:57;;;;;;;;;;;20.00;41.90;;;;;;5085073;28;19920;-66
2022/09/23 07:46:24;;;;;;;;;;;19.90;41.80;;;;;;5086482;28;19943;-65
2022/09/23 07:48:51;;;;;;;;;;;19.90;41.80;;;;;;5069521;28;19921;-65
2022/09/23 07:51:19;;;;;;;;;;;19.90;41.90;;;;;;5081361;28;20277;-67
2022/09/23 07:53:47;;;;;;;;;;;19.80;41.80;;;;;;5062802;28;19981;-66
2022/09/23 07:56:13;;;;;;;;;;;19.80;41.90;;;;;;5071076;28;19931;-65
2022/09/23 07:58:40;;;;;;;;;;;19.80;42.00;;;;;;5073255;28;19944;-65
2022/09/23 08:01:09;;;;;;;;;;;19.80;42.00;;;;;;5091565;28;19924;-65
2022/09/23 08:03:36;;;;;;;;;;;19.80;42.10;;;;;;5050939;28;19947;-64
2022/09/23 08:06:04;;;;;;;;;;;19.80;42.10;;;;;;5078990;28;20274;-65
2022/09/23 08:08:30;;;;;;;;;;;19.80;42.20;;;;;;5066355;28;19921;-64
2022/09/23 08:11:00;;;;;;;;;;;19.80;42.20;;;;;;5056515;28;20153;-65
2022/09/23 08:13:27;;;;;;;;;;;19.80;42.20;;;;;;5102865;28;19966;-67
2022/09/23 08:15:53;;;;;;;;;;;19.90;42.30;;;;;;5068535;28;19925;-65
2022/09/23 08:18:22;;;;;;;;;;;19.90;42.30;;;;;;5102870;28;20336;-66
2022/09/23 08:20:48;;;;;;;;;;;19.90;42.30;;;;;;5094616;28;19932;-66
2022/09/23 08:23:16;;;;;;;;;;;19.90;42.30;;;;;;5086488;28;19921;-65
2022/09/23 08:25:44;;;;;;;;;;;19.90;42.30;;;;;;5086240;28;20277;-67
2022/09/23 08:28:14;;;;;;;;;;;20.00;42.40;;;;;;5090901;28;19927;-65
2022/09/23 08:30:41;;;;;;;;;;;20.00;42.40;;;;;;5068137;28;19933;-64
2022/09/23 08:33:08;;;;;;;;;;;20.00;42.40;;;;;;5103184;28;19925;-65
2022/09/23 08:35:36;;;;;;;;;;;20.00;42.40;;;;;;5096177;28;20388;-64
2022/09/23 08:38:03;;;;;;;;;;;20.00;43.00;;;;;;5069641;28;19924;-66
2022/09/23 08:40:32;;;;;;;;;;;20.00;42.40;;;;;;5089025;28;19920;-64
2022/09/23 08:42:58;;;;;;;;;;;20.10;42.50;;;;;;5087444;28;19966;-64
2022/09/23 08:45:26;;;;;;;;;;;20.00;42.50;;;;;;5065878;28;20305;-65
2022/09/23 08:47:53;;;;;;;;;;;20.10;42.50;;;;;;5066050;28;20373;-66
2022/09/23 08:50:20;;;;;;;;;;;20.10;42.50;;;;;;5065278;28;19975;-65
2022/09/23 08:52:50;;;;;;;;;;;20.10;42.50;;;;;;5084976;28;19921;-66
2022/09/23 08:55:18;;;;;;;;;;;20.10;42.60;;;;;;5084236;28;19928;-65
2022/09/23 08:57:45;;;;;;;;;;;20.10;42.60;;;;;;5075434;28;20328;-65
2022/09/23 09:00:14;;;;;;;;;;;20.10;42.60;;;;;;5065544;28;20019;-65
2022/09/23 09:02:41;;;;;;;;;;;20.10;42.60;;;;;;5083409;28;19925;-66
2022/09/23 09:05:08;;;;;;;;;;;20.10;42.60;;;;;;5085504;28;19954;-65
2022/09/23 09:07:35;;;;;;;;;;;20.10;42.60;;;;;;5084807;28;19930;-65
2022/09/23 09:10:06;;;;;;;;;;;20.10;42.70;;;;;;5083575;28;20308;-68
2022/09/23 09:12:34;;;;;;;;;;;20.10;42.70;;;;;;5081628;28;19920;-65
2022/09/23 09:15:01;;;;;;;;;;;20.20;42.80;;;;;;5084864;28;19921;-66
2022/09/23 09:17:29;;;;;;;;;;;20.20;42.80;;;;;;5085251;28;19925;-66
2022/09/23 09:19:56;;;;;;;;;;;20.10;42.70;;;;;;5074815;28;19955;-67
2022/09/23 09:22:28;;;;;;;;;;;20.10;42.70;;;;;;5085533;28;19920;-65
2022/09/23 09:24:55;;;;;;;;;;;20.20;42.90;;;;;;5080979;28;19920;-66
2022/09/23 09:27:24;;;;;;;;;;;20.20;42.80;;;;;;5063368;28;20362;-65
2022/09/23 09:29:52;;;;;;;;;;;20.20;42.80;;;;;;5069891;28;19924;-67
2022/09/23 09:32:22;;;;;;;;;;;20.20;42.80;;;;;;5102490;28;19920;-66
2022/09/23 09:34:52;;;;;;;;;;;20.20;42.80;;;;;;5092607;28;20297;-65
2022/09/23 09:37:20;;;;;;;;;;;20.20;42.90;;;;;;5073046;28;19932;-66
2022/09/23 09:39:47;;;;;;;;;;;20.20;42.90;;;;;;5048443;28;19921;-65
2022/09/23 09:42:16;;;;;;;;;;;20.20;42.90;;;;;;5076202;28;20397;-66
2022/09/23 09:44:46;;;;;;;;;;;20.30;43.00;;;;;;5065810;28;19920;-69
2022/09/23 09:47:15;;;;;;;;;;;20.20;42.90;;;;;;5084553;28;19924;-65
2022/09/23 09:49:43;;;;;;;;;;;20.30;43.00;;;;;;5070411;28;19986;-65
2022/09/23 09:52:15;;;;;;;;;;;20.30;43.00;;;;;;5069185;28;19924;-66
2022/09/23 09:54:43;;;;;;;;;;;20.30;43.00;;;;;;5084444;28;19936;-66
2022/09/23 09:57:13;;;;;;;;;;;20.30;43.00;;;;;;5100947;28;20392;-65
2022/09/23 09:59:41;;;;;;;;;;;20.30;43.00;;;;;;5075687;28;19931;-65
2022/09/23 10:02:13;;;;;;;;;;;20.30;43.00;;;;;;5101380;28;19982;-65
2022/09/23 10:04:40;;;;;;;;;;;20.30;43.00;;;;;;5053536;28;20269;-64
2022/09/23 10:07:08;;;;;;;;;;;20.30;43.00;;;;;;5073362;28;19921;-65
2022/09/23 10:09:35;;;;;;;;;;;20.30;43.10;;;;;;5079077;28;20373;-64
2022/09/23 10:12:03;;;;;;;;;;;20.30;43.10;;;;;;5074042;28;19920;-65
2022/09/23 10:14:30;;;;;;;;;;;20.40;43.20;;;;;;5064739;28;19955;-64
2022/09/23 10:17:04;;;;;;;;;;;20.30;43.10;;;;;;5053999;28;19920;-65
2022/09/23 10:19:32;;;;;;;;;;;20.40;43.20;;;;;;5071457;28;19921;-64
2022/09/23 10:21:59;;;;;;;;;;;20.40;43.20;;;;;;5073589;28;19970;-64
2022/09/23 10:24:26;;;;;;;;;;;20.40;43.20;;;;;;5058754;28;20003;-64
2022/09/23 10:26:55;;;;;;;;;;;20.40;43.30;;;;;;5080498;28;19967;-65
2022/09/23 10:29:23;;;;;;;;;;;20.40;43.30;;;;;;5077239;28;19928;-64
2022/09/23 10:31:51;;;;;;;;;;;20.40;43.30;;;;;;5072676;28;19974;-66
2022/09/23 10:34:22;;;;;;;;;;;20.50;43.50;;;;;;5068385;28;20285;-65
2022/09/23 10:36:55;;;;;;;;;;;20.50;43.40;;;;;;5072336;28;19929;-65
2022/09/23 10:47:42;;;;;;;;;;;20.50;43.40;;;;;;5096132;28;19958;-66
2022/09/23 10:50:14;;;;;;;;;;;20.50;43.40;;;;;;5073069;28;19963;-66
2022/09/23 10:52:45;;;;;;;;;;;20.50;43.40;;;;;;5077889;28;19944;-65
2022/09/23 10:55:16;;;;;;;;;;;20.50;43.40;;;;;;5082168;28;19932;-66
2022/09/23 10:57:47;;;;;;;;;;;20.50;43.40;;;;;;5057865;28;19921;-66
2022/09/23 11:00:21;;;;;;;;;;;20.50;43.40;;;;;;5077524;28;19920;-65
2022/09/23 11:02:53;;;;;;;;;;;20.50;43.30;;;;;;5092420;28;19921;-66
2022/09/23 11:05:23;;;;;;;;;;;20.50;43.30;;;;;;5078452;28;19955;-64
2022/09/23 11:07:53;;;;;;;;;;;20.60;43.40;;;;;;5061291;28;19921;-65
2022/09/23 11:10:24;;;;;;;;;;;20.60;43.40;;;;;;5062862;28;19977;-65
2022/09/23 11:12:53;;;;;;;;;;;20.60;43.40;;;;;;5067600;28;19925;-66
2022/09/23 11:15:23;;;;;;;;;;;20.60;43.40;;;;;;5071998;28;20011;-65
2022/09/23 11:17:56;;;;;;;;;;;20.60;43.40;;;;;;5070670;28;19924;-65
2022/09/23 11:20:26;;;;;;;;;;;20.60;43.40;;;;;;5070402;28;19967;-65
2022/09/23 11:23:08;;;;;;;;;;;20.60;43.30;;;;;;5084300;28;20022;-65
2022/09/23 11:25:38;;;;;;;;;;;20.60;43.30;;;;;;5059465;28;19951;-66
2022/09/23 11:28:09;;;;;;;;;;;20.60;43.30;;;;;;5070482;28;19927;-65
2022/09/23 11:30:38;;;;;;;;;;;20.60;43.30;;;;;;5060415;28;19988;-65
2022/09/23 11:33:17;;;;;;;;;;;20.60;43.30;;;;;;5076094;28;19921;-65
2022/09/23 11:35:48;;;;;;;;;;;20.60;43.30;;;;;;5088121;28;19925;-65
2022/09/23 11:38:17;;;;;;;;;;;20.60;43.40;;;;;;5071620;28;20008;-66
2022/09/23 11:40:45;;;;;;;;;;;20.60;43.30;;;;;;5059645;28;19920;-66
2022/09/23 11:43:15;;;;;;;;;;;20.60;43.30;;;;;;5076812;28;19929;-65
2022/09/23 11:45:42;;;;;;;;;;;20.60;43.30;;;;;;5084519;28;20453;-65
2022/09/23 11:48:11;;;;;;;;;;;20.60;43.20;;;;;;5077236;28;20449;-66
2022/09/23 11:50:38;;;;;;;;;;;20.60;43.20;;;;;;5061847;28;20416;-64
2022/09/23 11:53:06;;;;;;;;;;;20.60;43.20;;;;;;5082508;28;20366;-65
2022/09/23 11:55:34;;;;;;;;;;;20.60;43.20;;;;;;5065852;28;19920;-67
2022/09/23 11:58:02;;;;;;;;;;;20.70;43.30;;;;;;5058165;28;19927;-65
2022/09/23 12:00:31;;;;;;;;;;;20.70;43.20;;;;;;5066538;28;20006;-66
2022/09/23 12:03:03;;;;;;;;;;;20.70;43.20;;;;;;5075400;28;19952;-65
2022/09/23 12:05:30;;;;;;;;;;;20.70;43.20;;;;;;5074898;28;20054;-66
2022/09/23 12:07:58;;;;;;;;;;;20.70;43.20;;;;;;5084353;28;20354;-64
2022/09/23 12:10:27;;;;;;;;;;;20.70;43.20;;;;;;5072446;28;20308;-66
2022/09/23 12:12:54;;;;;;;;;;;20.70;43.20;;;;;;5074742;28;20645;-65
2022/09/23 12:15:26;;;;;;;;;;;20.70;43.20;;;;;;5082381;28;19931;-65
2022/09/23 12:17:59;;;;;;;;;;;20.70;43.20;;;;;;5072022;28;20251;-65
2022/09/23 12:20:30;;;;;;;;;;;20.70;43.20;;;;;;5059260;28;19925;-65
2022/09/23 12:23:01;;;;;;;;;;;20.70;43.20;;;;;;5057087;28;19927;-64
2022/09/23 12:25:33;;;;;;;;;;;20.70;43.20;;;;;;5060759;28;19974;-64
2022/09/23 12:28:00;;;;;;;;;;;20.70;43.20;;;;;;5075648;28;20023;-64
2022/09/23 12:30:29;;;;;;;;;;;20.70;43.20;;;;;;5064024;28;19927;-65
2022/09/23 12:33:00;;;;;;;;;;;20.70;43.20;;;;;;5078177;28;19970;-66
2022/09/23 12:35:31;;;;;;;;;;;20.70;43.20;;;;;;5081729;28;19920;-65
2022/09/23 12:37:58;;;;;;;;;;;20.70;43.20;;;;;;5079574;28;19925;-65
2022/09/23 12:40:27;;;;;;;;;;;20.70;43.20;;;;;;5070101;28;19975;-65
2022/09/23 12:42:53;;;;;;;;;;;20.70;43.20;;;;;;5058158;28;20282;-69
2022/09/23 12:45:36;;;;;;;;;;;20.70;43.20;;;;;;5076583;28;19984;-65
2022/09/23 12:48:03;;;;;;;;;;;20.70;43.20;;;;;;5090109;28;19921;-65
2022/09/23 12:50:46;;;;;;;;;;;20.70;43.20;;;;;;5079486;28;20015;-66
2022/09/23 12:53:31;;;;;;;;;;;20.70;43.20;;;;;;5070572;28;19921;-65
2022/09/23 12:55:58;;;;;;;;;;;20.70;43.20;;;;;;5095702;28;19970;-64
2022/09/23 12:58:37;;;;;;;;;;;20.70;43.20;;;;;;5076886;28;19920;-66
2022/09/23 13:01:08;;;;;;;;;;;20.70;43.20;;;;;;5068048;28;19974;-66
2022/09/23 13:09:03;;;;;;;;;;;20.80;43.20;;;;;;5089099;28;19928;-65
2022/09/23 13:11:30;;;;;;;;;;;20.80;43.20;;;;;;5076056;28;19925;-65
2022/09/23 13:13:58;;;;;;;;;;;20.80;43.30;;;;;;5076414;28;19939;-64
2022/09/23 13:16:29;;;;;;;;;;;20.70;43.20;;;;;;5057265;28;19930;-65
2022/09/23 13:18:56;;;;;;;;;;;20.80;43.20;;;;;;5069187;28;20321;-67
2022/09/23 13:21:41;;;;;;;;;;;20.80;43.20;;;;;;5071969;28;19927;-68
2022/09/23 13:24:16;;;;;;;;;;;20.80;43.30;;;;;;5067596;28;20341;-67
2022/09/23 13:26:43;;;;;;;;;;;20.80;43.20;;;;;;5078159;28;19933;-65
2022/09/23 13:29:10;;;;;;;;;;;20.80;43.20;;;;;;5077498;28;20437;-67
2022/09/23 13:31:39;;;;;;;;;;;20.80;43.20;;;;;;5060595;28;19925;-65
2022/09/23 13:34:05;;;;;;;;;;;20.80;43.20;;;;;;5058989;28;20398;-65
2022/09/23 13:36:33;;;;;;;;;;;20.80;43.20;;;;;;5072646;28;19978;-66
2022/09/23 13:39:13;;;;;;;;;;;20.80;43.20;;;;;;5072459;28;19921;-66
2022/09/23 13:41:40;;;;;;;;;;;20.80;43.20;;;;;;5068189;28;19925;-66
2022/09/23 13:44:10;;;;;;;;;;;20.80;43.20;;;;;;5065896;28;19925;-67
2022/09/23 13:46:41;;;;;;;;;;;20.80;43.20;;;;;;5081147;28;19921;-66
2022/09/23 13:49:13;;;;;;;;;;;20.80;43.20;;;;;;5054231;28;19988;-67
2022/09/23 13:51:40;;;;;;;;;;;20.80;43.20;;;;;;5070604;28;19925;-66
2022/09/23 13:54:06;;;;;;;;;;;20.80;43.20;;;;;;5062379;28;20003;-66
2022/09/23 13:56:35;;;;;;;;;;;20.80;43.20;;;;;;5073439;28;19978;-66
2022/09/23 13:59:11;;;;;;;;;;;20.80;43.10;;;;;;5076802;28;19927;-67
2022/09/23 14:01:39;;;;;;;;;;;20.80;43.10;;;;;;5075385;28;19925;-67
2022/09/23 14:04:06;;;;;;;;;;;20.80;43.10;;;;;;5083386;28;20027;-66
2022/09/23 14:06:33;;;;;;;;;;;20.80;43.10;;;;;;5060395;28;20015;-67
2022/09/23 14:09:00;;;;;;;;;;;20.80;43.00;;;;;;5082879;28;19973;-66
2022/09/23 14:11:28;;;;;;;;;;;20.80;43.00;;;;;;5059534;28;19921;-66
2022/09/23 14:13:55;;;;;;;;;;;20.80;43.00;;;;;;5063289;28;19925;-66
2022/09/23 14:16:23;;;;;;;;;;;20.80;43.10;;;;;;5062161;28;19924;-66
2022/09/23 14:18:52;;;;;;;;;;;20.80;43.10;;;;;;5072037;28;19921;-66
2022/09/23 14:21:28;;;;;;;;;;;20.80;43.00;;;;;;5088312;28;19963;-66
2022/09/23 14:23:55;;;;;;;;;;;20.80;43.00;;;;;;5063653;28;20015;-67
2022/09/23 14:26:22;;;;;;;;;;;20.80;43.00;;;;;;5076113;28;19927;-66
2022/09/23 14:28:48;;;;;;;;;;;20.80;43.10;;;;;;5075183;28;19925;-66
2022/09/23 14:31:15;;;;;;;;;;;20.80;43.00;;;;;;5064035;28;19960;-66
2022/09/23 14:33:42;;;;;;;;;;;20.80;43.00;;;;;;5070572;28;19974;-66
2022/09/23 14:38:49;;;;;;;;;;;20.80;43.00;;;;;;5076940;28;19925;-67
2022/09/23 14:39:00;;;;;;;;;;;20.80;43.00;;;;;;5074673;28;19931;-66
2022/09/23 14:41:27;;;;;;;;;;;20.80;43.00;;;;;;5066622;28;20235;-67